sensor_id;sensor_type;location;lat;lon;timestamp;P1;durP1;ratioP1;P2;durP2;ratioP2
68377;SDS011;55322;48.146;11.516;2023-07-29T00:00:35;7.20;;;3.50;;
68377;SDS011;55322;48.146;11.516;2023-07-29T00:03:00;7.27;;;3.40;;
68377;SDS011;55322;48.146;11.516;2023-07-29T00:05:26;7.00;;;3.30;;
68377;SDS011;55322;48.146;11.516;2023-07-29T00:07:51;7.57;;;3.15;;
68377;SDS011;55322;48.146;11.516;2023-07-29T00:10:17;9.50;;;3.03;;
68377;SDS011;55322;48.146;11.516;2023-07-29T00:12:42;6.80;;;3.00;;
68377;SDS011;55322;48.146;11.516;2023-07-29T00:15:08;7.37;;;3.17;;
68377;SDS011;55322;48.146;11.516;2023-07-29T00:17:33;7.55;;;3.50;;
68377;SDS011;55322;48.146;11.516;2023-07-29T00:19:59;8.10;;;3.03;;
68377;SDS011;55322;48.146;11.516;2023-07-29T00:22:24;7.73;;;2.80;;
68377;SDS011;55322;48.146;11.516;2023-07-29T00:24:52;6.70;;;3.07;;
68377;SDS011;55322;48.146;11.516;2023-07-29T00:27:22;6.70;;;3.05;;
68377;SDS011;55322;48.146;11.516;2023-07-29T00:29:48;7.95;;;2.95;;
68377;SDS011;55322;48.146;11.516;2023-07-29T00:32:13;7.30;;;3.27;;
68377;SDS011;55322;48.146;11.516;2023-07-29T00:34:38;7.17;;;2.90;;
68377;SDS011;55322;48.146;11.516;2023-07-29T00:37:04;7.60;;;3.40;;
68377;SDS011;55322;48.146;11.516;2023-07-29T00:39:30;6.88;;;3.20;;
68377;SDS011;55322;48.146;11.516;2023-07-29T00:41:56;7.03;;;3.13;;
68377;SDS011;55322;48.146;11.516;2023-07-29T00:44:21;7.80;;;3.37;;
68377;SDS011;55322;48.146;11.516;2023-07-29T00:46:47;8.63;;;3.30;;
68377;SDS011;55322;48.146;11.516;2023-07-29T00:49:15;8.43;;;3.00;;
68377;SDS011;55322;48.146;11.516;2023-07-29T00:51:41;8.38;;;3.22;;
68377;SDS011;55322;48.146;11.516;2023-07-29T00:54:06;8.23;;;2.80;;
68377;SDS011;55322;48.146;11.516;2023-07-29T00:56:31;7.50;;;2.80;;
68377;SDS011;55322;48.146;11.516;2023-07-29T00:58:57;8.57;;;2.93;;
68377;SDS011;55322;48.146;11.516;2023-07-29T01:01:26;8.15;;;2.92;;
68377;SDS011;55322;48.146;11.516;2023-07-29T01:03:55;7.03;;;3.05;;
68377;SDS011;55322;48.146;11.516;2023-07-29T01:09:04;6.60;;;2.85;;
68377;SDS011;55322;48.146;11.516;2023-07-29T01:14:11;6.63;;;2.55;;
68377;SDS011;55322;48.146;11.516;2023-07-29T01:16:44;7.90;;;2.75;;
68377;SDS011;55322;48.146;11.516;2023-07-29T01:19:26;8.60;;;2.60;;
68377;SDS011;55322;48.146;11.516;2023-07-29T01:22:07;7.00;;;3.00;;
68377;SDS011;55322;48.146;11.516;2023-07-29T01:24:33;8.35;;;2.40;;
68377;SDS011;55322;48.146;11.516;2023-07-29T01:26:58;7.10;;;2.90;;
68377;SDS011;55322;48.146;11.516;2023-07-29T01:29:26;6.20;;;2.50;;
68377;SDS011;55322;48.146;11.516;2023-07-29T01:31:52;7.28;;;2.30;;
68377;SDS011;55322;48.146;11.516;2023-07-29T01:37:00;7.40;;;2.50;;
68377;SDS011;55322;48.146;11.516;2023-07-29T01:39:29;6.50;;;2.78;;
68377;SDS011;55322;48.146;11.516;2023-07-29T01:41:59;6.32;;;2.60;;
68377;SDS011;55322;48.146;11.516;2023-07-29T01:44:24;7.07;;;2.53;;
68377;SDS011;55322;48.146;11.516;2023-07-29T01:46:51;7.13;;;2.38;;
68377;SDS011;55322;48.146;11.516;2023-07-29T01:49:16;9.17;;;2.93;;
68377;SDS011;55322;48.146;11.516;2023-07-29T01:51:41;6.60;;;2.50;;
68377;SDS011;55322;48.146;11.516;2023-07-29T01:54:07;7.10;;;2.60;;
68377;SDS011;55322;48.146;11.516;2023-07-29T01:56:32;7.90;;;2.90;;
68377;SDS011;55322;48.146;11.516;2023-07-29T01:58:57;6.03;;;2.60;;
68377;SDS011;55322;48.146;11.516;2023-07-29T02:01:22;7.43;;;2.63;;
68377;SDS011;55322;48.146;11.516;2023-07-29T02:03:48;6.40;;;2.60;;
68377;SDS011;55322;48.146;11.516;2023-07-29T02:06:20;8.30;;;2.80;;
68377;SDS011;55322;48.146;11.516;2023-07-29T02:08:46;6.53;;;2.65;;
68377;SDS011;55322;48.146;11.516;2023-07-29T02:11:11;6.87;;;2.80;;
68377;SDS011;55322;48.146;11.516;2023-07-29T02:13:36;6.53;;;3.00;;
68377;SDS011;55322;48.146;11.516;2023-07-29T02:16:02;6.63;;;2.70;;
68377;SDS011;55322;48.146;11.516;2023-07-29T02:18:27;7.30;;;2.70;;
68377;SDS011;55322;48.146;11.516;2023-07-29T02:20:53;7.73;;;2.80;;
68377;SDS011;55322;48.146;11.516;2023-07-29T02:23:18;6.90;;;2.60;;
68377;SDS011;55322;48.146;11.516;2023-07-29T02:25:43;6.87;;;3.10;;
68377;SDS011;55322;48.146;11.516;2023-07-29T02:28:08;6.33;;;2.40;;
68377;SDS011;55322;48.146;11.516;2023-07-29T02:30:34;6.37;;;2.73;;
68377;SDS011;55322;48.146;11.516;2023-07-29T02:32:59;8.13;;;2.53;;
68377;SDS011;55322;48.146;11.516;2023-07-29T02:35:26;6.22;;;2.63;;
68377;SDS011;55322;48.146;11.516;2023-07-29T02:37:52;8.13;;;2.60;;
68377;SDS011;55322;48.146;11.516;2023-07-29T02:40:17;6.40;;;2.40;;
68377;SDS011;55322;48.146;11.516;2023-07-29T02:42:42;6.97;;;2.40;;
68377;SDS011;55322;48.146;11.516;2023-07-29T02:45:08;6.40;;;2.47;;
68377;SDS011;55322;48.146;11.516;2023-07-29T02:47:36;6.32;;;2.55;;
68377;SDS011;55322;48.146;11.516;2023-07-29T02:50:02;6.57;;;2.78;;
68377;SDS011;55322;48.146;11.516;2023-07-29T02:52:28;5.67;;;2.30;;
68377;SDS011;55322;48.146;11.516;2023-07-29T02:54:53;6.70;;;2.70;;
68377;SDS011;55322;48.146;11.516;2023-07-29T02:57:18;5.80;;;2.17;;
68377;SDS011;55322;48.146;11.516;2023-07-29T02:59:45;8.30;;;2.65;;
68377;SDS011;55322;48.146;11.516;2023-07-29T03:02:10;7.03;;;2.33;;
68377;SDS011;55322;48.146;11.516;2023-07-29T03:04:36;6.68;;;2.60;;
68377;SDS011;55322;48.146;11.516;2023-07-29T03:07:01;6.60;;;2.50;;
68377;SDS011;55322;48.146;11.516;2023-07-29T03:09:27;5.72;;;2.00;;
68377;SDS011;55322;48.146;11.516;2023-07-29T03:11:53;7.27;;;2.30;;
68377;SDS011;55322;48.146;11.516;2023-07-29T03:14:19;6.57;;;2.42;;
68377;SDS011;55322;48.146;11.516;2023-07-29T03:16:45;5.75;;;2.20;;
68377;SDS011;55322;48.146;11.516;2023-07-29T03:19:11;5.57;;;2.40;;
68377;SDS011;55322;48.146;11.516;2023-07-29T03:21:56;5.94;;;2.31;;
68377;SDS011;55322;48.146;11.516;2023-07-29T03:24:22;7.40;;;2.15;;
68377;SDS011;55322;48.146;11.516;2023-07-29T03:26:47;5.70;;;2.03;;
68377;SDS011;55322;48.146;11.516;2023-07-29T03:29:12;6.30;;;2.30;;
68377;SDS011;55322;48.146;11.516;2023-07-29T03:31:38;5.40;;;1.83;;
68377;SDS011;55322;48.146;11.516;2023-07-29T03:34:03;6.43;;;1.80;;
68377;SDS011;55322;48.146;11.516;2023-07-29T03:36:28;6.53;;;1.90;;
68377;SDS011;55322;48.146;11.516;2023-07-29T03:38:54;5.88;;;2.05;;
68377;SDS011;55322;48.146;11.516;2023-07-29T03:41:19;8.03;;;1.90;;
68377;SDS011;55322;48.146;11.516;2023-07-29T03:43:45;7.43;;;2.37;;
68377;SDS011;55322;48.146;11.516;2023-07-29T03:46:10;6.87;;;2.10;;
68377;SDS011;55322;48.146;11.516;2023-07-29T03:48:35;6.10;;;1.90;;
68377;SDS011;55322;48.146;11.516;2023-07-29T03:51:01;5.87;;;1.83;;
68377;SDS011;55322;48.146;11.516;2023-07-29T03:53:26;5.80;;;2.13;;
68377;SDS011;55322;48.146;11.516;2023-07-29T03:55:52;5.33;;;1.73;;
68377;SDS011;55322;48.146;11.516;2023-07-29T03:58:17;6.32;;;1.98;;
68377;SDS011;55322;48.146;11.516;2023-07-29T04:00:42;5.83;;;1.93;;
68377;SDS011;55322;48.146;11.516;2023-07-29T04:03:08;5.30;;;1.70;;
68377;SDS011;55322;48.146;11.516;2023-07-29T04:05:33;6.70;;;1.70;;
68377;SDS011;55322;48.146;11.516;2023-07-29T04:07:59;5.38;;;1.90;;
68377;SDS011;55322;48.146;11.516;2023-07-29T04:10:24;6.47;;;2.10;;
68377;SDS011;55322;48.146;11.516;2023-07-29T04:12:50;5.60;;;2.00;;
68377;SDS011;55322;48.146;11.516;2023-07-29T04:15:15;5.50;;;1.80;;
68377;SDS011;55322;48.146;11.516;2023-07-29T04:17:40;5.83;;;2.00;;
68377;SDS011;55322;48.146;11.516;2023-07-29T04:20:06;5.63;;;1.70;;
68377;SDS011;55322;48.146;11.516;2023-07-29T04:22:32;6.10;;;2.00;;
68377;SDS011;55322;48.146;11.516;2023-07-29T04:24:58;7.43;;;1.90;;
68377;SDS011;55322;48.146;11.516;2023-07-29T04:27:23;5.72;;;1.90;;
68377;SDS011;55322;48.146;11.516;2023-07-29T04:29:48;6.47;;;1.40;;
68377;SDS011;55322;48.146;11.516;2023-07-29T04:32:13;5.67;;;1.67;;
68377;SDS011;55322;48.146;11.516;2023-07-29T04:34:39;6.67;;;1.90;;
68377;SDS011;55322;48.146;11.516;2023-07-29T04:37:04;6.20;;;1.90;;
68377;SDS011;55322;48.146;11.516;2023-07-29T04:39:30;5.37;;;1.70;;
68377;SDS011;55322;48.146;11.516;2023-07-29T04:41:55;6.17;;;1.60;;
68377;SDS011;55322;48.146;11.516;2023-07-29T04:44:22;5.07;;;1.73;;
68377;SDS011;55322;48.146;11.516;2023-07-29T04:46:47;6.00;;;1.97;;
68377;SDS011;55322;48.146;11.516;2023-07-29T04:49:13;5.10;;;1.70;;
68377;SDS011;55322;48.146;11.516;2023-07-29T04:51:38;5.80;;;1.87;;
68377;SDS011;55322;48.146;11.516;2023-07-29T04:54:03;7.37;;;2.23;;
68377;SDS011;55322;48.146;11.516;2023-07-29T04:56:29;6.03;;;2.05;;
68377;SDS011;55322;48.146;11.516;2023-07-29T04:58:54;6.47;;;1.90;;
68377;SDS011;55322;48.146;11.516;2023-07-29T05:01:20;5.07;;;1.60;;
68377;SDS011;55322;48.146;11.516;2023-07-29T05:03:45;5.57;;;1.70;;
68377;SDS011;55322;48.146;11.516;2023-07-29T05:06:10;6.17;;;1.60;;
68377;SDS011;55322;48.146;11.516;2023-07-29T05:08:36;5.73;;;1.93;;
68377;SDS011;55322;48.146;11.516;2023-07-29T05:11:01;5.43;;;1.50;;
68377;SDS011;55322;48.146;11.516;2023-07-29T05:13:26;5.13;;;1.47;;
68377;SDS011;55322;48.146;11.516;2023-07-29T05:15:52;5.20;;;1.70;;
68377;SDS011;55322;48.146;11.516;2023-07-29T05:18:17;6.40;;;1.80;;
68377;SDS011;55322;48.146;11.516;2023-07-29T05:20:43;6.50;;;1.90;;
68377;SDS011;55322;48.146;11.516;2023-07-29T05:23:08;4.90;;;1.40;;
68377;SDS011;55322;48.146;11.516;2023-07-29T05:25:34;5.70;;;1.53;;
68377;SDS011;55322;48.146;11.516;2023-07-29T05:28:00;4.63;;;1.30;;
68377;SDS011;55322;48.146;11.516;2023-07-29T05:30:25;6.68;;;1.58;;
68377;SDS011;55322;48.146;11.516;2023-07-29T05:32:52;5.07;;;1.60;;
68377;SDS011;55322;48.146;11.516;2023-07-29T05:35:17;4.40;;;1.10;;
68377;SDS011;55322;48.146;11.516;2023-07-29T05:37:42;5.23;;;1.50;;
68377;SDS011;55322;48.146;11.516;2023-07-29T05:40:08;4.50;;;1.30;;
68377;SDS011;55322;48.146;11.516;2023-07-29T05:42:33;5.28;;;1.52;;
68377;SDS011;55322;48.146;11.516;2023-07-29T05:44:59;4.93;;;1.40;;
68377;SDS011;55322;48.146;11.516;2023-07-29T05:47:24;5.17;;;1.23;;
68377;SDS011;55322;48.146;11.516;2023-07-29T05:49:50;5.00;;;1.40;;
68377;SDS011;55322;48.146;11.516;2023-07-29T05:52:15;4.57;;;1.30;;
68377;SDS011;55322;48.146;11.516;2023-07-29T05:54:41;4.73;;;1.50;;
68377;SDS011;55322;48.146;11.516;2023-07-29T05:57:07;4.60;;;1.13;;
68377;SDS011;55322;48.146;11.516;2023-07-29T05:59:34;7.32;;;1.30;;
68377;SDS011;55322;48.146;11.516;2023-07-29T06:01:59;5.20;;;1.53;;
68377;SDS011;55322;48.146;11.516;2023-07-29T06:04:24;6.57;;;1.50;;
68377;SDS011;55322;48.146;11.516;2023-07-29T06:06:50;4.87;;;1.50;;
68377;SDS011;55322;48.146;11.516;2023-07-29T06:09:15;6.13;;;1.63;;
68377;SDS011;55322;48.146;11.516;2023-07-29T06:11:41;4.73;;;1.40;;
68377;SDS011;55322;48.146;11.516;2023-07-29T06:14:06;5.17;;;1.40;;
68377;SDS011;55322;48.146;11.516;2023-07-29T06:16:31;5.83;;;1.50;;
68377;SDS011;55322;48.146;11.516;2023-07-29T06:18:57;5.40;;;1.57;;
68377;SDS011;55322;48.146;11.516;2023-07-29T06:21:22;5.47;;;1.60;;
68377;SDS011;55322;48.146;11.516;2023-07-29T06:23:48;5.13;;;1.60;;
68377;SDS011;55322;48.146;11.516;2023-07-29T06:26:13;5.70;;;1.30;;
68377;SDS011;55322;48.146;11.516;2023-07-29T06:28:38;6.83;;;1.80;;
68377;SDS011;55322;48.146;11.516;2023-07-29T06:31:04;6.47;;;1.43;;
68377;SDS011;55322;48.146;11.516;2023-07-29T06:33:29;6.53;;;1.60;;
68377;SDS011;55322;48.146;11.516;2023-07-29T06:35:54;5.97;;;1.87;;
68377;SDS011;55322;48.146;11.516;2023-07-29T06:38:20;4.70;;;1.50;;
68377;SDS011;55322;48.146;11.516;2023-07-29T06:40:50;6.60;;;1.63;;
68377;SDS011;55322;48.146;11.516;2023-07-29T06:43:15;6.53;;;1.50;;
68377;SDS011;55322;48.146;11.516;2023-07-29T06:45:41;5.53;;;1.45;;
68377;SDS011;55322;48.146;11.516;2023-07-29T06:48:07;5.40;;;1.33;;
68377;SDS011;55322;48.146;11.516;2023-07-29T06:50:32;5.27;;;1.20;;
68377;SDS011;55322;48.146;11.516;2023-07-29T06:52:58;5.30;;;1.30;;
68377;SDS011;55322;48.146;11.516;2023-07-29T06:55:23;6.10;;;1.63;;
68377;SDS011;55322;48.146;11.516;2023-07-29T06:57:48;8.40;;;1.80;;
68377;SDS011;55322;48.146;11.516;2023-07-29T07:00:14;6.17;;;2.17;;
68377;SDS011;55322;48.146;11.516;2023-07-29T07:02:39;6.40;;;2.03;;
68377;SDS011;55322;48.146;11.516;2023-07-29T07:05:05;13.87;;;2.63;;
68377;SDS011;55322;48.146;11.516;2023-07-29T07:07:30;6.80;;;2.00;;
68377;SDS011;55322;48.146;11.516;2023-07-29T07:09:56;8.37;;;2.10;;
68377;SDS011;55322;48.146;11.516;2023-07-29T07:12:21;8.32;;;2.30;;
68377;SDS011;55322;48.146;11.516;2023-07-29T07:14:47;6.73;;;2.10;;
68377;SDS011;55322;48.146;11.516;2023-07-29T07:17:12;7.67;;;2.53;;
68377;SDS011;55322;48.146;11.516;2023-07-29T07:19:37;6.18;;;2.13;;
68377;SDS011;55322;48.146;11.516;2023-07-29T07:22:03;6.50;;;2.30;;
68377;SDS011;55322;48.146;11.516;2023-07-29T07:24:29;7.50;;;2.43;;
68377;SDS011;55322;48.146;11.516;2023-07-29T07:26:54;6.50;;;2.37;;
68377;SDS011;55322;48.146;11.516;2023-07-29T07:29:19;6.43;;;2.20;;
68377;SDS011;55322;48.146;11.516;2023-07-29T07:31:49;8.97;;;2.50;;
68377;SDS011;55322;48.146;11.516;2023-07-29T07:34:17;6.43;;;2.22;;
68377;SDS011;55322;48.146;11.516;2023-07-29T07:36:42;6.57;;;2.50;;
68377;SDS011;55322;48.146;11.516;2023-07-29T07:39:08;7.03;;;2.40;;
68377;SDS011;55322;48.146;11.516;2023-07-29T07:41:33;6.03;;;2.10;;
68377;SDS011;55322;48.146;11.516;2023-07-29T07:43:58;8.83;;;2.53;;
68377;SDS011;55322;48.146;11.516;2023-07-29T07:46:24;8.10;;;2.57;;
68377;SDS011;55322;48.146;11.516;2023-07-29T07:48:49;6.00;;;2.20;;
68377;SDS011;55322;48.146;11.516;2023-07-29T07:51:14;6.88;;;2.17;;
68377;SDS011;55322;48.146;11.516;2023-07-29T07:53:40;6.37;;;2.30;;
68377;SDS011;55322;48.146;11.516;2023-07-29T07:56:05;7.53;;;2.60;;
68377;SDS011;55322;48.146;11.516;2023-07-29T07:58:31;7.25;;;2.40;;
68377;SDS011;55322;48.146;11.516;2023-07-29T08:01:00;8.23;;;2.73;;
68377;SDS011;55322;48.146;11.516;2023-07-29T08:03:29;6.38;;;2.20;;
68377;SDS011;55322;48.146;11.516;2023-07-29T08:05:55;6.57;;;2.70;;
68377;SDS011;55322;48.146;11.516;2023-07-29T08:08:20;6.53;;;2.40;;
68377;SDS011;55322;48.146;11.516;2023-07-29T08:10:46;5.97;;;2.47;;
68377;SDS011;55322;48.146;11.516;2023-07-29T08:13:11;7.50;;;2.47;;
68377;SDS011;55322;48.146;11.516;2023-07-29T08:15:36;6.80;;;2.70;;
68377;SDS011;55322;48.146;11.516;2023-07-29T08:18:02;7.40;;;2.70;;
68377;SDS011;55322;48.146;11.516;2023-07-29T08:20:27;7.03;;;2.53;;
68377;SDS011;55322;48.146;11.516;2023-07-29T08:22:52;7.13;;;2.70;;
68377;SDS011;55322;48.146;11.516;2023-07-29T08:25:18;7.50;;;2.40;;
68377;SDS011;55322;48.146;11.516;2023-07-29T08:27:43;7.00;;;2.40;;
68377;SDS011;55322;48.146;11.516;2023-07-29T08:30:08;6.70;;;2.60;;
68377;SDS011;55322;48.146;11.516;2023-07-29T08:32:34;6.45;;;2.10;;
68377;SDS011;55322;48.146;11.516;2023-07-29T08:34:59;7.67;;;2.37;;
68377;SDS011;55322;48.146;11.516;2023-07-29T08:37:25;6.00;;;2.23;;
68377;SDS011;55322;48.146;11.516;2023-07-29T08:39:52;5.60;;;2.30;;
68377;SDS011;55322;48.146;11.516;2023-07-29T08:42:19;6.85;;;2.42;;
68377;SDS011;55322;48.146;11.516;2023-07-29T08:44:45;6.97;;;2.30;;
68377;SDS011;55322;48.146;11.516;2023-07-29T08:47:14;6.50;;;2.58;;
68377;SDS011;55322;48.146;11.516;2023-07-29T08:49:40;6.50;;;2.38;;
68377;SDS011;55322;48.146;11.516;2023-07-29T08:52:06;5.70;;;2.30;;
68377;SDS011;55322;48.146;11.516;2023-07-29T08:54:32;6.23;;;2.33;;
68377;SDS011;55322;48.146;11.516;2023-07-29T08:56:57;7.27;;;2.40;;
68377;SDS011;55322;48.146;11.516;2023-07-29T08:59:24;6.28;;;2.38;;
68377;SDS011;55322;48.146;11.516;2023-07-29T09:01:50;8.98;;;2.50;;
68377;SDS011;55322;48.146;11.516;2023-07-29T09:04:20;7.57;;;2.50;;
68377;SDS011;55322;48.146;11.516;2023-07-29T09:06:46;7.83;;;2.50;;
68377;SDS011;55322;48.146;11.516;2023-07-29T09:09:13;12.68;;;3.60;;
68377;SDS011;55322;48.146;11.516;2023-07-29T09:11:38;7.57;;;2.70;;
68377;SDS011;55322;48.146;11.516;2023-07-29T09:14:03;6.57;;;2.47;;
68377;SDS011;55322;48.146;11.516;2023-07-29T09:16:29;7.50;;;2.80;;
68377;SDS011;55322;48.146;11.516;2023-07-29T09:18:55;7.32;;;2.40;;
68377;SDS011;55322;48.146;11.516;2023-07-29T09:21:22;7.03;;;2.65;;
68377;SDS011;55322;48.146;11.516;2023-07-29T09:23:49;7.00;;;2.63;;
68377;SDS011;55322;48.146;11.516;2023-07-29T09:26:18;7.88;;;2.47;;
68377;SDS011;55322;48.146;11.516;2023-07-29T09:28:51;6.80;;;2.40;;
68377;SDS011;55322;48.146;11.516;2023-07-29T09:31:21;7.82;;;2.60;;
68377;SDS011;55322;48.146;11.516;2023-07-29T09:33:48;6.28;;;2.33;;
68377;SDS011;55322;48.146;11.516;2023-07-29T09:36:14;6.33;;;2.17;;
68377;SDS011;55322;48.146;11.516;2023-07-29T09:38:40;7.47;;;2.15;;
68377;SDS011;55322;48.146;11.516;2023-07-29T09:41:05;6.23;;;2.23;;
68377;SDS011;55322;48.146;11.516;2023-07-29T09:43:31;7.18;;;2.70;;
68377;SDS011;55322;48.146;11.516;2023-07-29T09:46:02;6.47;;;2.40;;
68377;SDS011;55322;48.146;11.516;2023-07-29T09:48:32;5.75;;;2.20;;
68377;SDS011;55322;48.146;11.516;2023-07-29T09:50:58;6.18;;;2.60;;
68377;SDS011;55322;48.146;11.516;2023-07-29T09:53:24;6.87;;;2.20;;
68377;SDS011;55322;48.146;11.516;2023-07-29T09:55:49;6.13;;;2.55;;
68377;SDS011;55322;48.146;11.516;2023-07-29T09:58:25;6.35;;;2.50;;
68377;SDS011;55322;48.146;11.516;2023-07-29T10:00:51;6.40;;;2.50;;
68377;SDS011;55322;48.146;11.516;2023-07-29T10:03:17;5.85;;;2.60;;
68377;SDS011;55322;48.146;11.516;2023-07-29T10:05:45;6.13;;;2.40;;
68377;SDS011;55322;48.146;11.516;2023-07-29T10:08:11;5.70;;;2.20;;
68377;SDS011;55322;48.146;11.516;2023-07-29T10:10:38;5.65;;;2.25;;
68377;SDS011;55322;48.146;11.516;2023-07-29T10:13:03;6.10;;;2.70;;
68377;SDS011;55322;48.146;11.516;2023-07-29T10:15:30;6.28;;;2.58;;
68377;SDS011;55322;48.146;11.516;2023-07-29T10:17:57;5.55;;;2.30;;
68377;SDS011;55322;48.146;11.516;2023-07-29T10:20:23;6.43;;;2.50;;
68377;SDS011;55322;48.146;11.516;2023-07-29T10:22:48;8.63;;;2.70;;
68377;SDS011;55322;48.146;11.516;2023-07-29T10:25:16;7.35;;;2.72;;
68377;SDS011;55322;48.146;11.516;2023-07-29T10:30:13;6.15;;;2.63;;
68377;SDS011;55322;48.146;11.516;2023-07-29T10:32:38;5.70;;;2.33;;
68377;SDS011;55322;48.146;11.516;2023-07-29T10:35:08;6.95;;;2.67;;
68377;SDS011;55322;48.146;11.516;2023-07-29T10:37:34;8.10;;;2.67;;
68377;SDS011;55322;48.146;11.516;2023-07-29T10:40:00;6.03;;;2.37;;
68377;SDS011;55322;48.146;11.516;2023-07-29T10:42:25;6.00;;;2.50;;
68377;SDS011;55322;48.146;11.516;2023-07-29T10:44:51;6.87;;;2.23;;
68377;SDS011;55322;48.146;11.516;2023-07-29T10:49:45;8.95;;;2.85;;
68377;SDS011;55322;48.146;11.516;2023-07-29T10:52:15;7.78;;;3.10;;
68377;SDS011;55322;48.146;11.516;2023-07-29T10:54:52;9.65;;;3.70;;
68377;SDS011;55322;48.146;11.516;2023-07-29T10:57:30;8.97;;;3.10;;
68377;SDS011;55322;48.146;11.516;2023-07-29T10:59:57;8.90;;;2.78;;
68377;SDS011;55322;48.146;11.516;2023-07-29T11:02:28;8.03;;;2.93;;
68377;SDS011;55322;48.146;11.516;2023-07-29T11:04:54;10.85;;;3.17;;
68377;SDS011;55322;48.146;11.516;2023-07-29T11:07:20;10.27;;;3.00;;
68377;SDS011;55322;48.146;11.516;2023-07-29T11:12:33;6.18;;;2.78;;
68377;SDS011;55322;48.146;11.516;2023-07-29T11:17:36;5.70;;;2.07;;
68377;SDS011;55322;48.146;11.516;2023-07-29T11:20:04;5.93;;;2.28;;
68377;SDS011;55322;48.146;11.516;2023-07-29T11:22:30;5.53;;;1.80;;
68377;SDS011;55322;48.146;11.516;2023-07-29T11:24:56;5.28;;;1.40;;
68377;SDS011;55322;48.146;11.516;2023-07-29T11:27:21;7.47;;;1.80;;
68377;SDS011;55322;48.146;11.516;2023-07-29T11:29:47;4.78;;;1.45;;
68377;SDS011;55322;48.146;11.516;2023-07-29T11:32:13;4.83;;;1.43;;
68377;SDS011;55322;48.146;11.516;2023-07-29T11:34:39;5.70;;;1.58;;
68377;SDS011;55322;48.146;11.516;2023-07-29T11:37:09;6.30;;;1.70;;
68377;SDS011;55322;48.146;11.516;2023-07-29T11:39:42;6.30;;;1.70;;
68377;SDS011;55322;48.146;11.516;2023-07-29T11:42:12;4.90;;;1.70;;
68377;SDS011;55322;48.146;11.516;2023-07-29T11:44:39;5.25;;;1.60;;
68377;SDS011;55322;48.146;11.516;2023-07-29T11:47:08;6.33;;;2.00;;
68377;SDS011;55322;48.146;11.516;2023-07-29T11:49:34;5.80;;;1.92;;
68377;SDS011;55322;48.146;11.516;2023-07-29T11:52:01;5.40;;;1.90;;
68377;SDS011;55322;48.146;11.516;2023-07-29T11:54:28;6.53;;;2.20;;
68377;SDS011;55322;48.146;11.516;2023-07-29T11:56:54;5.27;;;1.57;;
68377;SDS011;55322;48.146;11.516;2023-07-29T11:59:20;8.65;;;2.00;;
68377;SDS011;55322;48.146;11.516;2023-07-29T12:01:45;5.53;;;1.80;;
68377;SDS011;55322;48.146;11.516;2023-07-29T12:04:11;6.88;;;3.67;;
68377;SDS011;55322;48.146;11.516;2023-07-29T12:06:37;5.30;;;2.10;;
68377;SDS011;55322;48.146;11.516;2023-07-29T12:09:03;5.85;;;1.83;;
68377;SDS011;55322;48.146;11.516;2023-07-29T12:11:28;5.10;;;1.90;;
68377;SDS011;55322;48.146;11.516;2023-07-29T12:13:54;5.35;;;1.95;;
68377;SDS011;55322;48.146;11.516;2023-07-29T12:16:19;5.33;;;2.00;;
68377;SDS011;55322;48.146;11.516;2023-07-29T12:18:45;5.37;;;2.10;;
68377;SDS011;55322;48.146;11.516;2023-07-29T12:21:10;5.87;;;1.70;;
68377;SDS011;55322;48.146;11.516;2023-07-29T12:23:35;5.73;;;2.40;;
68377;SDS011;55322;48.146;11.516;2023-07-29T12:26:01;4.80;;;1.90;;
68377;SDS011;55322;48.146;11.516;2023-07-29T12:28:27;5.30;;;2.30;;
68377;SDS011;55322;48.146;11.516;2023-07-29T12:30:53;5.75;;;1.95;;
68377;SDS011;55322;48.146;11.516;2023-07-29T12:33:35;5.40;;;2.25;;
68377;SDS011;55322;48.146;11.516;2023-07-29T12:36:01;5.43;;;2.20;;
68377;SDS011;55322;48.146;11.516;2023-07-29T12:38:28;5.75;;;2.20;;
68377;SDS011;55322;48.146;11.516;2023-07-29T12:40:53;5.53;;;1.85;;
68377;SDS011;55322;48.146;11.516;2023-07-29T12:43:19;5.80;;;2.30;;
68377;SDS011;55322;48.146;11.516;2023-07-29T12:45:44;8.00;;;2.20;;
68377;SDS011;55322;48.146;11.516;2023-07-29T12:48:10;7.03;;;2.17;;
68377;SDS011;55322;48.146;11.516;2023-07-29T12:50:36;5.70;;;2.20;;
68377;SDS011;55322;48.146;11.516;2023-07-29T12:53:02;7.25;;;2.38;;
68377;SDS011;55322;48.146;11.516;2023-07-29T12:55:27;6.63;;;2.33;;
68377;SDS011;55322;48.146;11.516;2023-07-29T12:57:53;6.30;;;2.37;;
68377;SDS011;55322;48.146;11.516;2023-07-29T13:00:18;6.68;;;1.88;;
68377;SDS011;55322;48.146;11.516;2023-07-29T13:02:43;7.33;;;2.30;;
68377;SDS011;55322;48.146;11.516;2023-07-29T13:05:10;6.30;;;2.27;;
68377;SDS011;55322;48.146;11.516;2023-07-29T13:07:37;7.05;;;2.53;;
68377;SDS011;55322;48.146;11.516;2023-07-29T13:10:05;7.28;;;2.65;;
68377;SDS011;55322;48.146;11.516;2023-07-29T13:12:31;5.93;;;2.57;;
68377;SDS011;55322;48.146;11.516;2023-07-29T13:14:57;8.85;;;2.92;;
68377;SDS011;55322;48.146;11.516;2023-07-29T13:17:22;7.13;;;2.93;;
68377;SDS011;55322;48.146;11.516;2023-07-29T13:19:48;8.57;;;3.00;;
68377;SDS011;55322;48.146;11.516;2023-07-29T13:22:13;9.13;;;3.60;;
68377;SDS011;55322;48.146;11.516;2023-07-29T13:24:39;9.10;;;3.80;;
68377;SDS011;55322;48.146;11.516;2023-07-29T13:27:04;9.10;;;4.00;;
68377;SDS011;55322;48.146;11.516;2023-07-29T13:29:30;8.68;;;4.43;;
68377;SDS011;55322;48.146;11.516;2023-07-29T13:31:55;9.73;;;5.47;;
68377;SDS011;55322;48.146;11.516;2023-07-29T13:34:20;10.27;;;5.50;;
68377;SDS011;55322;48.146;11.516;2023-07-29T13:36:46;10.40;;;5.63;;
68377;SDS011;55322;48.146;11.516;2023-07-29T13:39:12;11.23;;;5.07;;
68377;SDS011;55322;48.146;11.516;2023-07-29T13:41:37;8.83;;;5.27;;
68377;SDS011;55322;48.146;11.516;2023-07-29T13:44:02;9.07;;;4.90;;
68377;SDS011;55322;48.146;11.516;2023-07-29T13:46:28;8.95;;;4.55;;
68377;SDS011;55322;48.146;11.516;2023-07-29T13:48:53;10.30;;;5.10;;
68377;SDS011;55322;48.146;11.516;2023-07-29T13:51:18;8.93;;;5.20;;
68377;SDS011;55322;48.146;11.516;2023-07-29T13:53:44;10.53;;;5.30;;
68377;SDS011;55322;48.146;11.516;2023-07-29T13:56:09;8.57;;;4.93;;
68377;SDS011;55322;48.146;11.516;2023-07-29T13:58:34;7.70;;;4.10;;
68377;SDS011;55322;48.146;11.516;2023-07-29T14:01:00;10.40;;;3.93;;
68377;SDS011;55322;48.146;11.516;2023-07-29T14:03:25;8.63;;;4.10;;
68377;SDS011;55322;48.146;11.516;2023-07-29T14:05:50;9.03;;;3.97;;
68377;SDS011;55322;48.146;11.516;2023-07-29T14:08:16;7.85;;;4.03;;
68377;SDS011;55322;48.146;11.516;2023-07-29T14:10:41;6.90;;;3.80;;
68377;SDS011;55322;48.146;11.516;2023-07-29T14:13:06;8.87;;;4.33;;
68377;SDS011;55322;48.146;11.516;2023-07-29T14:15:32;9.73;;;3.80;;
68377;SDS011;55322;48.146;11.516;2023-07-29T14:17:57;8.77;;;4.23;;
68377;SDS011;55322;48.146;11.516;2023-07-29T14:20:23;8.60;;;3.63;;
68377;SDS011;55322;48.146;11.516;2023-07-29T14:22:48;7.60;;;3.40;;
68377;SDS011;55322;48.146;11.516;2023-07-29T14:25:14;8.07;;;3.83;;
68377;SDS011;55322;48.146;11.516;2023-07-29T14:27:39;8.73;;;4.32;;
68377;SDS011;55322;48.146;11.516;2023-07-29T14:30:05;8.97;;;4.10;;
68377;SDS011;55322;48.146;11.516;2023-07-29T14:32:31;8.13;;;3.60;;
68377;SDS011;55322;48.146;11.516;2023-07-29T14:34:56;7.57;;;3.55;;
68377;SDS011;55322;48.146;11.516;2023-07-29T14:37:21;8.70;;;4.20;;
68377;SDS011;55322;48.146;11.516;2023-07-29T14:39:47;8.47;;;4.17;;
68377;SDS011;55322;48.146;11.516;2023-07-29T14:42:12;8.20;;;4.13;;
68377;SDS011;55322;48.146;11.516;2023-07-29T14:44:39;7.15;;;4.10;;